createdAt,value
2018-06-18T14:50:11.677Z,25.33
2018-06-18T14:51:11.088Z,25.45
2018-06-18T14:52:10.221Z,25.28
2018-06-18T14:53:10.921Z,25.32
2018-06-18T14:54:11.224Z,25.32
2018-06-18T14:55:10.279Z,25.33
2018-06-18T14:56:10.215Z,25.36
2018-06-18T14:57:10.342Z,25.36
2018-06-18T14:58:10.276Z,25.28
2018-06-18T14:59:09.947Z,25.30
2018-06-18T15:00:09.967Z,25.32
2018-06-18T15:01:09.885Z,25.35
2018-06-18T15:02:09.875Z,25.25
2018-06-18T15:03:10.015Z,25.28
2018-06-18T15:04:09.875Z,25.24
2018-06-18T15:05:09.971Z,25.30
2018-06-18T15:06:09.756Z,25.28
2018-06-18T15:07:09.744Z,25.25
2018-06-18T15:08:10.118Z,25.25
2018-06-18T15:09:09.897Z,25.21
2018-06-18T15:10:10.504Z,25.24
2018-06-18T15:11:09.607Z,25.24
2018-06-18T15:12:10.077Z,25.27
2018-06-18T15:13:10.142Z,25.27
2018-06-18T15:14:09.503Z,25.25
2018-06-18T15:15:09.553Z,25.23
2018-06-18T15:16:09.787Z,25.25
2018-06-18T15:17:09.497Z,25.28
2018-06-18T15:18:09.417Z,25.20
2018-06-18T15:19:09.596Z,25.24
2018-06-18T15:20:09.442Z,25.21
2018-06-18T15:21:09.381Z,25.25
2018-06-18T15:22:09.446Z,25.27
2018-06-18T15:23:09.515Z,25.23
2018-06-18T15:24:09.201Z,25.27
2018-06-18T15:25:09.458Z,25.27
2018-06-18T15:26:09.228Z,25.28
2018-06-18T15:27:09.127Z,25.35
2018-06-18T15:28:09.066Z,25.32
2018-06-18T15:29:09.076Z,25.32
2018-06-18T15:30:09.242Z,25.25
2018-06-18T15:31:09.206Z,25.30
2018-06-18T15:32:09.038Z,25.25
2018-06-18T15:33:09.151Z,25.30
2018-06-18T15:34:08.864Z,25.23
2018-06-18T15:35:08.815Z,25.35
2018-06-18T15:36:08.784Z,25.33
2018-06-18T15:37:08.888Z,25.32
2018-06-18T15:38:08.859Z,25.32
2018-06-18T15:39:08.732Z,25.32
2018-06-18T15:40:08.741Z,25.43
2018-06-18T15:41:08.706Z,25.43
2018-06-18T15:42:09.624Z,25.45
2018-06-18T15:43:08.577Z,25.54
2018-06-18T15:44:08.742Z,25.58
2018-06-18T15:45:08.505Z,25.58
2018-06-18T15:46:08.875Z,25.58
2018-06-18T15:47:08.452Z,25.57
2018-06-18T15:48:08.620Z,25.51
2018-06-18T15:49:08.429Z,25.55
2018-06-18T15:50:08.778Z,25.52
